Frankston, TX

8:36 PM CDT on September 20, 2014 (GMT -0500)
Weaver Estates | Change Station
CLOSE
Current Station
Personal Weather Station
Location: Bullard, TX
Elevation: 384 ft
Nearby Weather Stations

Elev 384 ft 32.09 °N, 95.42 °W | Updated 32 minutes ago

Clear
Clear
80.4 °F
Feels Like 83 °F
N
2.2
Wind Variable Wind from SE

Today
High -- | Low -- °F
--% Chance of Precip.
Yesterday
High -- | Low -- °F
Precip. -- in
7:08 AM 7:21 PM
Waning Crescent, 9% visible
Pressure 29.99 in
Visibility 10.0 miles
Clouds Clear
Heat Index 83 °F
Dew Point 69 °F
Humidity 69%
Rainfall 0.00 in
Snow Depth Not available.
UV 0 out of 12
Pollen 10.80 out of 12
Air Quality Not available.
Flu Activity Not available.
METAR KJSO 210115Z AUTO 00000KT 10SM CLR 26/18 A2999 RMK AO2 T02630189

More Conditions Fewer Conditions

Pressure 29.99 in
Visibility 10.0 miles
Clouds Clear
Heat Index 83 °F
Dew Point 69 °F
Humidity 69%
Rainfall 0.00 in
Snow Depth Not available.
UV 0 out of 12
Pollen 10.80 out of 12
Air Quality Not available.
Flu Activity Not available.
METAR KJSO 210115Z AUTO 00000KT 10SM CLR 26/18 A2999 RMK AO2 T02630189

More Conditions Fewer Conditions

10-Day Weather Forecast

Almanac

Astronomy

Sep. 20, 2014 Rise Set
Actual Time 7:08 AM CDT 7:21 PM CDT
Civil Twilight 6:44 AM CDT 7:45 PM CDT
Nautical Twilight 6:16 AM CDT 8:14 PM CDT
Astronomical Twilight 5:47 AM CDT 8:42 PM CDT
Moon 3:58 AM CDT (9/20) 5:17 PM CDT (9/20)
Length of Visible Light 13h 01m
Length of Day
12h 12m
Tomorrow will be 1m 56s shorter.
Waning Crescent, 9% of the Moon is Illuminated
Today
Waning Crescent
Sep 24
New
Oct 1
First Quarter
Oct 8
Full
Oct 15
Last Quarter

Today's Extremes

State Highs State Lows

Community

WunderPhotos

Upload Photos

1,755,032 photos uploaded!

WunderBlogs® & News

Nearby

Snow Depth

Station Depth Elevation
No new snow has been reported.

Earthquake Activity

City Distance Mag. Time & Date
No recent earthquake activity has been reported nearby.
Minimum magnitude displayed is 2.5.

Coastal Water Temperatures

Place Temperature
No Stations Reporting

Nearby Weather Stations